createdAt,value
2023-02-09T00:00:35.804Z,-3.82
2023-02-09T00:03:06.402Z,-3.87
2023-02-09T00:05:35.018Z,-3.81
2023-02-09T00:08:03.392Z,-3.70
2023-02-09T00:10:31.766Z,-3.63
2023-02-09T00:13:19.943Z,-3.63
2023-02-09T00:15:50.081Z,-3.59
2023-02-09T00:18:18.648Z,-3.69
2023-02-09T00:20:47.417Z,-3.72
2023-02-09T00:23:15.694Z,-3.64
2023-02-09T00:25:44.068Z,-3.55
2023-02-09T00:28:13.992Z,-3.45
2023-02-09T00:30:42.415Z,-3.46
2023-02-09T00:33:10.805Z,-3.56
2023-02-09T00:35:41.663Z,-3.70
2023-02-09T00:38:10.970Z,-3.80
2023-02-09T00:40:40.988Z,-3.85
2023-02-09T00:43:09.849Z,-3.85
2023-02-09T00:45:39.626Z,-3.78
2023-02-09T00:48:08.028Z,-3.72
2023-02-09T00:50:36.419Z,-3.72
2023-02-09T00:53:04.778Z,-3.84
2023-02-09T00:55:33.244Z,-3.84
2023-02-09T00:58:01.579Z,-3.88
2023-02-09T01:00:29.970Z,-3.90
2023-02-09T01:03:10.417Z,-3.98
2023-02-09T01:05:40.317Z,-4.17
2023-02-09T01:08:09.372Z,-4.28
2023-02-09T01:10:38.339Z,-4.34
2023-02-09T01:13:07.005Z,-4.23
2023-02-09T01:15:35.342Z,-4.11
2023-02-09T01:18:03.709Z,-4.15
2023-02-09T01:20:33.419Z,-4.09
2023-02-09T01:23:02.019Z,-4.03
2023-02-09T01:25:30.476Z,-4.03
2023-02-09T01:28:03.104Z,-4.00
2023-02-09T01:30:31.524Z,-3.97
2023-02-09T01:32:59.900Z,-3.96
2023-02-09T01:35:29.398Z,-3.95
2023-02-09T01:38:00.045Z,-3.92
2023-02-09T01:40:28.400Z,-3.89
2023-02-09T01:42:56.889Z,-3.92
2023-02-09T01:45:30.733Z,-3.99
2023-02-09T01:48:01.600Z,-4.02
2023-02-09T01:50:34.596Z,-4.00
2023-02-09T01:53:05.678Z,-4.08
2023-02-09T01:55:37.925Z,-4.21
2023-02-09T01:58:11.339Z,-4.25
2023-02-09T02:00:39.771Z,-4.23
2023-02-09T02:03:13.481Z,-4.30
2023-02-09T02:05:45.302Z,-4.36
2023-02-09T02:08:20.274Z,-4.44
2023-02-09T02:10:48.691Z,-4.55
2023-02-09T02:13:17.056Z,-4.45
2023-02-09T02:15:57.577Z,-4.55
2023-02-09T02:18:36.309Z,-4.66
2023-02-09T02:21:38.901Z,-4.68
2023-02-09T02:24:40.536Z,-4.97
2023-02-09T02:27:11.606Z,-4.91
2023-02-09T02:30:20.123Z,-4.75
2023-02-09T02:32:59.170Z,-4.60
2023-02-09T02:35:34.539Z,-4.47
2023-02-09T02:38:13.113Z,-4.40
2023-02-09T02:40:55.993Z,-4.36
2023-02-09T02:43:37.682Z,-4.38
2023-02-09T02:46:11.079Z,-4.36
2023-02-09T02:48:44.453Z,-4.40
2023-02-09T02:51:19.623Z,-4.56
2023-02-09T02:53:53.808Z,-4.52
2023-02-09T02:56:26.035Z,-4.47
2023-02-09T02:58:58.142Z,-4.42
2023-02-09T03:01:30.900Z,-4.37
2023-02-09T03:04:09.194Z,-4.51
2023-02-09T03:06:38.519Z,-4.69
2023-02-09T03:09:07.348Z,-4.71
2023-02-09T03:11:39.006Z,-4.65
2023-02-09T03:14:24.879Z,-4.57
2023-02-09T03:17:14.618Z,-4.55
2023-02-09T03:19:52.265Z,-4.63
2023-02-09T03:22:28.627Z,-4.72
2023-02-09T03:25:03.532Z,-4.80
2023-02-09T03:27:36.523Z,-4.90
2023-02-09T03:30:07.190Z,-5.08
2023-02-09T03:32:39.468Z,-5.19
2023-02-09T03:35:13.124Z,-5.31
2023-02-09T03:37:41.550Z,-5.37
2023-02-09T03:40:10.976Z,-5.34
2023-02-09T03:42:39.478Z,-5.25
2023-02-09T03:45:09.021Z,-5.14
2023-02-09T03:47:41.134Z,-5.08
2023-02-09T03:50:11.288Z,-4.98
2023-02-09T03:52:39.954Z,-4.86
2023-02-09T03:55:08.693Z,-4.92
2023-02-09T03:57:39.246Z,-5.02
2023-02-09T04:00:08.969Z,-5.08
2023-02-09T04:02:37.510Z,-5.06
2023-02-09T04:05:06.496Z,-4.99
2023-02-09T04:07:36.569Z,-4.87
2023-02-09T04:10:06.474Z,-4.79
2023-02-09T04:12:36.555Z,-4.85
2023-02-09T04:15:05.224Z,-4.81
2023-02-09T04:17:33.546Z,-4.78
2023-02-09T04:20:02.033Z,-4.84
2023-02-09T04:22:30.364Z,-4.92
2023-02-09T04:25:00.115Z,-4.92
2023-02-09T04:27:28.565Z,-4.86
2023-02-09T04:29:56.974Z,-4.86
2023-02-09T04:32:25.297Z,-4.92
2023-02-09T04:34:53.610Z,-4.89
2023-02-09T04:37:21.969Z,-4.91
2023-02-09T04:39:50.275Z,-4.87
2023-02-09T04:42:19.941Z,-4.84
2023-02-09T04:44:48.306Z,-4.91
2023-02-09T04:47:22.359Z,-4.90
2023-02-09T04:49:50.847Z,-4.96
2023-02-09T04:52:19.226Z,-4.95
2023-02-09T04:54:47.787Z,-4.96
2023-02-09T04:57:33.945Z,-4.91
2023-02-09T05:00:03.703Z,-4.91
2023-02-09T05:02:33.942Z,-5.01
2023-02-09T05:05:02.272Z,-5.05
2023-02-09T05:07:30.598Z,-5.00
2023-02-09T05:09:58.972Z,-4.96
2023-02-09T05:12:27.403Z,-4.93
2023-02-09T05:14:55.723Z,-4.95
2023-02-09T05:17:35.433Z,-4.91
2023-02-09T05:20:04.177Z,-4.97
2023-02-09T05:22:33.012Z,-5.00
2023-02-09T05:25:01.315Z,-5.00
2023-02-09T05:27:29.668Z,-5.03
2023-02-09T05:29:57.984Z,-5.08
2023-02-09T05:32:26.458Z,-5.11
2023-02-09T05:34:56.236Z,-5.13
2023-02-09T05:37:24.567Z,-5.06
2023-02-09T05:39:52.988Z,-5.04
2023-02-09T05:42:21.359Z,-5.02
2023-02-09T05:44:51.453Z,-5.08
2023-02-09T05:47:22.423Z,-5.17
2023-02-09T05:49:50.773Z,-5.24
2023-02-09T05:52:21.075Z,-5.37
2023-02-09T05:54:50.197Z,-5.48
2023-02-09T05:57:19.084Z,-5.44
2023-02-09T05:59:47.518Z,-5.39
2023-02-09T06:02:15.944Z,-5.34
2023-02-09T06:04:44.473Z,-5.37
2023-02-09T06:07:12.807Z,-5.35
2023-02-09T06:09:42.563Z,-5.25
2023-02-09T06:12:10.944Z,-5.24
2023-02-09T06:14:39.303Z,-5.24
2023-02-09T06:17:07.659Z,-5.18
2023-02-09T06:19:35.918Z,-5.14
2023-02-09T06:22:04.341Z,-5.14
2023-02-09T06:24:32.680Z,-5.14
2023-02-09T06:27:02.415Z,-5.25
2023-02-09T06:29:31.384Z,-5.33
2023-02-09T06:31:59.813Z,-5.32
2023-02-09T06:34:28.524Z,-5.31
2023-02-09T06:36:56.887Z,-5.36
2023-02-09T06:39:26.344Z,-5.35
2023-02-09T06:41:54.696Z,-5.36
2023-02-09T06:44:24.382Z,-5.39
2023-02-09T06:46:54.573Z,-5.37
2023-02-09T06:49:24.009Z,-5.32
2023-02-09T06:51:52.485Z,-5.18
2023-02-09T06:54:21.269Z,-5.05
2023-02-09T06:56:49.811Z,-5.05
2023-02-09T06:59:18.217Z,-5.07
2023-02-09T07:01:53.461Z,-5.02
2023-02-09T07:04:22.860Z,-4.97
2023-02-09T07:06:51.250Z,-4.89
2023-02-09T07:09:19.568Z,-4.83
2023-02-09T07:11:47.959Z,-4.80
2023-02-09T07:14:16.350Z,-4.76
2023-02-09T07:16:44.720Z,-4.66
2023-02-09T07:19:14.401Z,-4.59
2023-02-09T07:21:42.772Z,-4.49
2023-02-09T07:24:11.139Z,-4.45
2023-02-09T07:26:39.431Z,-4.41
2023-02-09T07:29:07.856Z,-4.37
2023-02-09T07:31:36.394Z,-4.27
2023-02-09T07:34:04.813Z,-4.20
2023-02-09T07:36:34.538Z,-4.17
2023-02-09T07:39:02.949Z,-4.12
2023-02-09T07:41:31.493Z,-4.05
2023-02-09T07:43:59.889Z,-3.96
2023-02-09T07:46:28.383Z,-3.86
2023-02-09T07:48:59.457Z,-3.75
2023-02-09T07:51:29.656Z,-3.65
2023-02-09T07:54:00.864Z,-3.54
2023-02-09T07:56:29.814Z,-3.47
2023-02-09T07:58:58.632Z,-3.37
2023-02-09T08:01:27.130Z,-3.27
2023-02-09T08:03:55.560Z,-3.13
2023-02-09T08:06:40.967Z,-3.03
2023-02-09T08:09:12.457Z,-2.91
2023-02-09T08:11:45.988Z,-2.81
2023-02-09T08:14:18.654Z,-2.72
2023-02-09T08:16:49.958Z,-2.66
2023-02-09T08:19:22.784Z,-2.61
2023-02-09T08:21:52.051Z,-2.52
2023-02-09T08:24:22.457Z,-2.44
2023-02-09T08:26:50.843Z,-2.37
2023-02-09T08:29:19.343Z,-2.30
2023-02-09T08:31:52.374Z,-2.25
2023-02-09T08:34:20.782Z,-2.17
2023-02-09T08:36:49.150Z,-2.11
2023-02-09T08:39:17.459Z,-2.04
2023-02-09T08:41:47.210Z,-1.96
2023-02-09T08:44:15.566Z,-1.88
2023-02-09T08:46:44.325Z,-1.82
2023-02-09T08:49:13.114Z,-1.75
2023-02-09T08:51:41.553Z,-1.72
2023-02-09T08:54:10.150Z,-1.69
2023-02-09T08:56:38.569Z,-1.64
2023-02-09T08:59:08.254Z,-1.58
2023-02-09T09:01:36.780Z,-1.52
2023-02-09T09:04:05.380Z,-1.49
2023-02-09T09:06:34.032Z,-1.44
2023-02-09T09:09:02.366Z,-1.39
2023-02-09T09:11:30.746Z,-1.32
2023-02-09T09:13:59.810Z,-1.25
2023-02-09T09:16:29.592Z,-1.18
2023-02-09T09:18:58.001Z,-1.10
2023-02-09T09:21:26.446Z,-1.02
2023-02-09T09:23:54.758Z,-0.95
2023-02-09T09:26:23.241Z,-0.87
2023-02-09T09:28:52.039Z,-0.82
2023-02-09T09:31:21.014Z,-0.75
2023-02-09T09:33:50.785Z,-0.68
2023-02-09T09:36:20.673Z,-0.61
2023-02-09T09:38:49.007Z,-0.52
2023-02-09T09:41:25.477Z,-0.47
2023-02-09T09:43:55.715Z,-0.40
2023-02-09T09:46:33.619Z,-0.31
2023-02-09T09:49:04.442Z,-0.20
2023-02-09T09:51:40.281Z,-0.08
2023-02-09T09:54:15.171Z,-0.01
2023-02-09T09:56:43.509Z,0.06
2023-02-09T09:59:17.872Z,0.11
2023-02-09T10:01:47.502Z,0.17
2023-02-09T10:04:17.911Z,0.25
2023-02-09T10:06:48.564Z,0.29
2023-02-09T10:09:29.953Z,0.36
2023-02-09T10:12:06.590Z,0.45
2023-02-09T10:14:34.944Z,0.55
2023-02-09T10:17:03.479Z,0.63
2023-02-09T10:19:34.029Z,0.73
2023-02-09T10:22:02.883Z,0.81
2023-02-09T10:24:33.445Z,0.90
2023-02-09T10:27:13.536Z,0.97
2023-02-09T10:29:42.729Z,1.07
2023-02-09T10:32:17.146Z,1.18
2023-02-09T10:34:50.516Z,1.25
2023-02-09T10:37:23.012Z,1.34
2023-02-09T10:40:07.228Z,1.46
2023-02-09T10:42:37.741Z,1.55
2023-02-09T10:45:13.602Z,1.61
2023-02-09T10:47:58.776Z,1.69
2023-02-09T10:50:28.855Z,1.81
2023-02-09T10:53:00.523Z,1.94
2023-02-09T10:55:35.751Z,2.07
2023-02-09T10:58:15.415Z,2.19
2023-02-09T11:00:51.384Z,2.27
2023-02-09T11:03:21.545Z,2.39
2023-02-09T11:06:00.076Z,2.49
2023-02-09T11:08:46.622Z,2.59
2023-02-09T11:11:29.002Z,2.69
2023-02-09T11:13:57.623Z,2.82
2023-02-09T11:16:50.764Z,2.93
2023-02-09T11:19:36.438Z,3.02
2023-02-09T11:22:13.117Z,3.15
2023-02-09T11:24:52.293Z,3.27
2023-02-09T11:27:35.837Z,3.42
2023-02-09T11:30:18.949Z,3.52
2023-02-09T11:32:52.535Z,3.63
2023-02-09T11:35:25.156Z,3.75
2023-02-09T11:38:01.933Z,3.87
2023-02-09T11:40:37.337Z,4.00
2023-02-09T11:43:15.703Z,4.09
2023-02-09T11:45:47.270Z,4.18
2023-02-09T11:48:23.520Z,4.27
2023-02-09T11:51:04.624Z,4.35
2023-02-09T11:53:48.661Z,4.45
2023-02-09T11:56:20.853Z,4.55
2023-02-09T11:58:56.006Z,4.64
2023-02-09T12:01:34.281Z,4.74
2023-02-09T12:04:10.746Z,4.82
2023-02-09T12:06:42.531Z,4.88
2023-02-09T12:09:27.047Z,4.93
2023-02-09T12:12:05.854Z,4.95
2023-02-09T12:14:49.070Z,4.99
2023-02-09T12:17:22.546Z,5.04
2023-02-09T12:19:56.980Z,5.10
2023-02-09T12:23:04.470Z,5.17
2023-02-09T12:25:52.130Z,5.28
2023-02-09T12:28:46.413Z,5.40
2023-02-09T12:31:24.242Z,5.45
2023-02-09T12:34:15.857Z,5.52
2023-02-09T12:37:10.599Z,5.63
2023-02-09T12:39:38.905Z,5.77
2023-02-09T12:42:29.428Z,5.90
2023-02-09T12:45:00.597Z,6.03
2023-02-09T12:47:58.750Z,6.13
2023-02-09T12:50:53.504Z,6.23
2023-02-09T12:53:42.624Z,6.37
2023-02-09T12:56:34.396Z,6.47
2023-02-09T12:59:19.778Z,6.55
2023-02-09T13:02:24.744Z,6.59
2023-02-09T13:05:02.921Z,6.66
2023-02-09T13:07:41.167Z,6.76
2023-02-09T13:10:21.956Z,6.87
2023-02-09T13:12:55.929Z,6.93
2023-02-09T13:15:30.165Z,7.00
2023-02-09T13:18:15.886Z,7.06
2023-02-09T13:21:03.120Z,7.12
2023-02-09T13:23:36.988Z,7.15
2023-02-09T13:26:18.870Z,7.20
2023-02-09T13:28:47.643Z,7.22
2023-02-09T13:31:37.052Z,7.22
2023-02-09T13:34:19.591Z,7.28
2023-02-09T13:36:57.528Z,7.33
2023-02-09T13:39:27.616Z,7.39
2023-02-09T13:41:56.277Z,7.42
2023-02-09T13:44:29.985Z,7.48
2023-02-09T13:47:01.868Z,7.53
2023-02-09T13:49:31.398Z,7.60
2023-02-09T13:52:10.053Z,7.65
2023-02-09T13:54:38.669Z,7.71
2023-02-09T13:57:11.422Z,7.77
2023-02-09T13:59:42.709Z,7.79
2023-02-09T14:02:22.496Z,7.84
2023-02-09T14:04:54.215Z,7.89
2023-02-09T14:07:26.725Z,7.88
2023-02-09T14:10:02.534Z,7.91
2023-02-09T14:12:52.541Z,7.93
2023-02-09T14:15:43.011Z,8.00
2023-02-09T14:18:29.097Z,8.02
2023-02-09T14:21:03.410Z,8.04
2023-02-09T14:23:35.337Z,8.05
2023-02-09T14:26:06.082Z,8.00
2023-02-09T14:28:36.218Z,7.96
2023-02-09T14:31:06.084Z,7.92
2023-02-09T14:33:38.556Z,7.97
2023-02-09T14:36:07.659Z,8.07
2023-02-09T14:38:38.687Z,8.22
2023-02-09T14:41:30.514Z,8.37
2023-02-09T14:44:03.268Z,8.46
2023-02-09T14:46:52.848Z,8.50
2023-02-09T14:49:23.202Z,8.58
2023-02-09T14:51:59.860Z,8.65
2023-02-09T14:54:30.722Z,8.68
2023-02-09T14:57:00.901Z,8.70
2023-02-09T14:59:29.388Z,8.70
2023-02-09T15:01:57.721Z,8.69
2023-02-09T15:04:28.030Z,8.60
2023-02-09T15:07:02.715Z,8.40
2023-02-09T15:09:36.315Z,8.19
2023-02-09T15:12:05.444Z,7.96
2023-02-09T15:14:39.085Z,7.74
2023-02-09T15:17:15.644Z,7.56
2023-02-09T15:19:49.473Z,7.40
2023-02-09T15:22:18.243Z,7.26
2023-02-09T15:24:48.569Z,7.14
2023-02-09T15:27:24.748Z,7.04
2023-02-09T15:29:53.483Z,6.95
2023-02-09T15:32:23.305Z,6.85
2023-02-09T15:34:54.005Z,6.75
2023-02-09T15:37:25.368Z,6.62
2023-02-09T15:39:58.431Z,6.50
2023-02-09T15:42:44.272Z,6.40
2023-02-09T15:45:35.928Z,6.28
2023-02-09T15:48:05.072Z,6.18
2023-02-09T15:50:36.526Z,6.06
2023-02-09T15:53:07.556Z,5.98
2023-02-09T15:55:37.323Z,5.88
2023-02-09T15:58:12.225Z,5.77
2023-02-09T16:00:40.536Z,5.67
2023-02-09T16:03:15.392Z,5.58
2023-02-09T16:05:46.692Z,5.47
2023-02-09T16:08:20.662Z,5.37
2023-02-09T16:10:49.604Z,5.28
2023-02-09T16:13:19.790Z,5.15
2023-02-09T16:15:49.403Z,5.05
2023-02-09T16:18:17.828Z,4.97
2023-02-09T16:20:50.988Z,4.88
2023-02-09T16:23:22.974Z,4.81
2023-02-09T16:25:52.667Z,4.71
2023-02-09T16:28:22.480Z,4.60
2023-02-09T16:30:53.244Z,4.52
2023-02-09T16:33:24.378Z,4.39
2023-02-09T16:35:57.203Z,4.20
2023-02-09T16:38:26.842Z,4.06
2023-02-09T16:40:56.474Z,3.99
2023-02-09T16:43:25.403Z,3.91
2023-02-09T16:46:03.159Z,3.84
2023-02-09T16:48:34.542Z,3.76
2023-02-09T16:51:04.786Z,3.62
2023-02-09T16:53:37.525Z,3.54
2023-02-09T16:56:10.142Z,3.47
2023-02-09T16:58:39.744Z,3.41
2023-02-09T17:01:13.810Z,3.39
2023-02-09T17:03:43.647Z,3.33
2023-02-09T17:06:17.450Z,3.27
2023-02-09T17:08:45.910Z,3.17
2023-02-09T17:11:18.424Z,3.06
2023-02-09T17:13:46.988Z,2.97
2023-02-09T17:16:19.849Z,2.92
2023-02-09T17:18:50.606Z,2.85
2023-02-09T17:21:23.861Z,2.75
2023-02-09T17:23:53.456Z,2.68
2023-02-09T17:26:22.389Z,2.63
2023-02-09T17:28:51.373Z,2.62
2023-02-09T17:31:23.438Z,2.56
2023-02-09T17:33:53.818Z,2.51
2023-02-09T17:36:27.587Z,2.41
2023-02-09T17:38:57.590Z,2.31
2023-02-09T17:41:33.755Z,2.25
2023-02-09T17:44:22.362Z,2.14
2023-02-09T17:46:54.646Z,2.02
2023-02-09T17:49:23.307Z,1.90
2023-02-09T17:51:53.094Z,1.86
2023-02-09T17:54:22.380Z,1.86
2023-02-09T17:56:50.735Z,1.87
2023-02-09T17:59:20.285Z,1.88
2023-02-09T18:01:50.700Z,1.88
2023-02-09T18:04:21.375Z,1.76
2023-02-09T18:06:50.021Z,1.63
2023-02-09T18:09:19.711Z,1.56
2023-02-09T18:12:02.069Z,1.58
2023-02-09T18:14:32.750Z,1.57
2023-02-09T18:17:01.859Z,1.54
2023-02-09T18:19:30.220Z,1.50
2023-02-09T18:22:00.363Z,1.41
2023-02-09T18:24:33.263Z,1.38
2023-02-09T18:27:01.982Z,1.39
2023-02-09T18:29:30.520Z,1.44
2023-02-09T18:31:59.846Z,1.52
2023-02-09T18:34:29.143Z,1.54
2023-02-09T18:36:57.524Z,1.55
2023-02-09T18:39:25.903Z,1.47
2023-02-09T18:41:56.875Z,1.23
2023-02-09T18:44:29.178Z,1.00
2023-02-09T18:47:00.296Z,1.02
2023-02-09T18:49:29.047Z,1.12
2023-02-09T18:51:59.352Z,1.13
2023-02-09T18:54:28.898Z,1.16
2023-02-09T18:56:58.787Z,1.24
2023-02-09T18:59:29.498Z,1.23
2023-02-09T19:01:58.530Z,1.20
2023-02-09T19:04:27.033Z,1.14
2023-02-09T19:06:55.866Z,1.08
2023-02-09T19:09:24.236Z,1.04
2023-02-09T19:11:52.599Z,0.96
2023-02-09T19:14:40.598Z,0.88
2023-02-09T19:17:12.541Z,0.81
2023-02-09T19:19:40.885Z,0.76
2023-02-09T19:22:10.054Z,0.70
2023-02-09T19:24:38.373Z,0.66
2023-02-09T19:27:09.391Z,0.65
2023-02-09T19:29:41.276Z,0.70
2023-02-09T19:32:09.942Z,0.72
2023-02-09T19:34:40.993Z,0.63
2023-02-09T19:37:11.260Z,0.53
2023-02-09T19:39:41.352Z,0.48
2023-02-09T19:42:09.812Z,0.50
2023-02-09T19:44:39.538Z,0.48
2023-02-09T19:47:08.510Z,0.47
2023-02-09T19:49:36.864Z,0.45
2023-02-09T19:52:05.711Z,0.43
2023-02-09T19:54:35.044Z,0.42
2023-02-09T19:57:04.311Z,0.37
2023-02-09T19:59:32.736Z,0.38
2023-02-09T20:02:02.461Z,0.46
2023-02-09T20:04:30.902Z,0.53
2023-02-09T20:06:59.312Z,0.56
2023-02-09T20:09:27.686Z,0.58
2023-02-09T20:14:25.319Z,0.53
2023-02-09T20:16:54.406Z,0.47
2023-02-09T20:19:24.585Z,0.44
2023-02-09T20:21:52.934Z,0.43
2023-02-09T20:24:21.544Z,0.43
2023-02-09T20:26:49.882Z,0.37
2023-02-09T20:29:19.214Z,0.39
2023-02-09T20:31:47.561Z,0.41
2023-02-09T20:34:16.683Z,0.38
2023-02-09T20:36:48.237Z,0.39
2023-02-09T20:39:17.902Z,0.37
2023-02-09T20:42:01.101Z,0.34
2023-02-09T20:44:46.610Z,0.31
2023-02-09T20:47:14.968Z,0.31
2023-02-09T20:49:43.639Z,0.35
2023-02-09T20:52:13.312Z,0.35
2023-02-09T20:54:41.793Z,0.29
2023-02-09T20:57:10.118Z,0.28
2023-02-09T20:59:38.523Z,0.26
2023-02-09T21:02:06.904Z,0.21
2023-02-09T21:04:35.277Z,0.16
2023-02-09T21:07:04.201Z,0.10
2023-02-09T21:09:34.312Z,0.03
2023-02-09T21:12:02.745Z,-0.05
2023-02-09T21:14:41.516Z,-0.05
2023-02-09T21:17:10.866Z,-0.09
2023-02-09T21:19:39.319Z,-0.06
2023-02-09T21:22:08.347Z,-0.02
2023-02-09T21:24:39.491Z,0.01
2023-02-09T21:27:07.938Z,-0.01
2023-02-09T21:29:36.709Z,-0.07
2023-02-09T21:32:07.929Z,-0.15
2023-02-09T21:34:36.285Z,-0.18
2023-02-09T21:37:07.922Z,-0.20
2023-02-09T21:39:36.376Z,-0.21
2023-02-09T21:42:23.946Z,-0.22
2023-02-09T21:44:54.066Z,-0.20
2023-02-09T21:47:25.398Z,-0.16
2023-02-09T21:49:53.784Z,-0.14
2023-02-09T21:52:22.208Z,-0.14
2023-02-09T21:54:50.741Z,-0.12
2023-02-09T21:57:20.969Z,-0.06
2023-02-09T21:59:49.359Z,-0.01
2023-02-09T22:02:19.316Z,0.00
2023-02-09T22:04:49.736Z,0.00
2023-02-09T22:07:18.094Z,0.01
2023-02-09T22:09:46.490Z,0.00
2023-02-09T22:12:14.873Z,0.00
2023-02-09T22:14:44.605Z,0.01
2023-02-09T22:17:13.012Z,0.02
2023-02-09T22:19:41.337Z,0.07
2023-02-09T22:22:11.257Z,0.12
2023-02-09T22:24:39.649Z,0.15
2023-02-09T22:27:08.012Z,0.16
2023-02-09T22:29:36.273Z,0.12
2023-02-09T22:32:06.289Z,0.08
2023-02-09T22:34:34.754Z,0.05
2023-02-09T22:37:03.333Z,-0.04
2023-02-09T22:39:31.780Z,-0.11
2023-02-09T22:42:00.769Z,-0.18
2023-02-09T22:44:30.423Z,-0.20
2023-02-09T22:46:58.784Z,-0.21
2023-02-09T22:49:28.482Z,-0.23
2023-02-09T22:51:56.852Z,-0.21
2023-02-09T22:54:25.207Z,-0.19
2023-02-09T22:56:53.616Z,-0.25
2023-02-09T22:59:21.922Z,-0.26
2023-02-09T23:01:50.304Z,-0.31
2023-02-09T23:04:18.651Z,-0.30
2023-02-09T23:06:48.445Z,-0.35
2023-02-09T23:09:16.807Z,-0.41
2023-02-09T23:11:45.369Z,-0.42
2023-02-09T23:14:13.944Z,-0.40
2023-02-09T23:16:44.901Z,-0.40
2023-02-09T23:19:15.885Z,-0.41
2023-02-09T23:21:45.834Z,-0.49
2023-02-09T23:24:17.195Z,-0.51
2023-02-09T23:26:46.024Z,-0.45
2023-02-09T23:29:16.113Z,-0.42
2023-02-09T23:31:45.315Z,-0.41
2023-02-09T23:34:16.338Z,-0.43
2023-02-09T23:36:44.849Z,-0.46
2023-02-09T23:39:17.779Z,-0.48
2023-02-09T23:41:46.585Z,-0.49
2023-02-09T23:44:15.004Z,-0.50
2023-02-09T23:46:43.456Z,-0.51
2023-02-09T23:49:12.385Z,-0.51
2023-02-09T23:51:40.729Z,-0.49
2023-02-09T23:54:09.470Z,-0.45
2023-02-09T23:56:39.193Z,-0.44
2023-02-09T23:59:10.361Z,-0.43
